sensor_id;sensor_type;location;lat;lon;timestamp;P1;durP1;ratioP1;P2;durP2;ratioP2
66830;SDS011;53739;44.224;22.528;2022-07-24T00:00:31;11.55;;;9.30;;
66830;SDS011;53739;44.224;22.528;2022-07-24T00:02:57;12.38;;;8.45;;
66830;SDS011;53739;44.224;22.528;2022-07-24T00:05:23;16.25;;;8.52;;
66830;SDS011;53739;44.224;22.528;2022-07-24T00:07:49;14.20;;;8.52;;
66830;SDS011;53739;44.224;22.528;2022-07-24T00:10:15;13.52;;;8.63;;
66830;SDS011;53739;44.224;22.528;2022-07-24T00:12:40;11.18;;;9.20;;
66830;SDS011;53739;44.224;22.528;2022-07-24T00:15:06;12.82;;;8.70;;
66830;SDS011;53739;44.224;22.528;2022-07-24T00:17:38;16.27;;;8.82;;
66830;SDS011;53739;44.224;22.528;2022-07-24T00:20:05;16.30;;;8.82;;
66830;SDS011;53739;44.224;22.528;2022-07-24T00:22:32;16.67;;;9.60;;
66830;SDS011;53739;44.224;22.528;2022-07-24T00:24:57;15.88;;;8.70;;
66830;SDS011;53739;44.224;22.528;2022-07-24T00:27:23;17.73;;;7.88;;
66830;SDS011;53739;44.224;22.528;2022-07-24T00:29:49;13.70;;;8.40;;
66830;SDS011;53739;44.224;22.528;2022-07-24T00:32:15;17.13;;;9.07;;
66830;SDS011;53739;44.224;22.528;2022-07-24T00:34:41;14.70;;;9.10;;
66830;SDS011;53739;44.224;22.528;2022-07-24T00:37:07;16.25;;;8.68;;
66830;SDS011;53739;44.224;22.528;2022-07-24T00:39:33;16.33;;;8.48;;
66830;SDS011;53739;44.224;22.528;2022-07-24T00:41:59;13.63;;;8.40;;
66830;SDS011;53739;44.224;22.528;2022-07-24T00:44:25;10.73;;;8.60;;
66830;SDS011;53739;44.224;22.528;2022-07-24T00:46:51;10.23;;;7.97;;
66830;SDS011;53739;44.224;22.528;2022-07-24T00:49:17;14.50;;;8.00;;
66830;SDS011;53739;44.224;22.528;2022-07-24T00:51:45;13.32;;;8.50;;
66830;SDS011;53739;44.224;22.528;2022-07-24T00:54:13;15.10;;;8.48;;
66830;SDS011;53739;44.224;22.528;2022-07-24T00:56:41;13.07;;;8.15;;
66830;SDS011;53739;44.224;22.528;2022-07-24T00:59:08;13.75;;;8.48;;
66830;SDS011;53739;44.224;22.528;2022-07-24T01:01:34;18.45;;;8.20;;
66830;SDS011;53739;44.224;22.528;2022-07-24T01:04:00;12.98;;;8.68;;
66830;SDS011;53739;44.224;22.528;2022-07-24T01:06:26;10.40;;;8.68;;
66830;SDS011;53739;44.224;22.528;2022-07-24T01:08:52;11.77;;;8.68;;
66830;SDS011;53739;44.224;22.528;2022-07-24T01:11:19;14.88;;;8.85;;
66830;SDS011;53739;44.224;22.528;2022-07-24T01:13:47;12.75;;;8.35;;
66830;SDS011;53739;44.224;22.528;2022-07-24T01:16:13;13.20;;;8.90;;
66830;SDS011;53739;44.224;22.528;2022-07-24T01:18:39;10.32;;;8.48;;
66830;SDS011;53739;44.224;22.528;2022-07-24T01:21:06;12.60;;;9.00;;
66830;SDS011;53739;44.224;22.528;2022-07-24T01:23:32;10.15;;;8.32;;
66830;SDS011;53739;44.224;22.528;2022-07-24T01:25:58;12.13;;;8.77;;
66830;SDS011;53739;44.224;22.528;2022-07-24T01:28:24;13.35;;;8.43;;
66830;SDS011;53739;44.224;22.528;2022-07-24T01:30:50;17.23;;;8.60;;
66830;SDS011;53739;44.224;22.528;2022-07-24T01:33:16;17.58;;;8.85;;
66830;SDS011;53739;44.224;22.528;2022-07-24T01:35:42;17.20;;;8.73;;
66830;SDS011;53739;44.224;22.528;2022-07-24T01:38:09;17.05;;;9.15;;
66830;SDS011;53739;44.224;22.528;2022-07-24T01:40:36;16.40;;;8.60;;
66830;SDS011;53739;44.224;22.528;2022-07-24T01:43:02;14.65;;;8.55;;
66830;SDS011;53739;44.224;22.528;2022-07-24T01:45:28;19.20;;;9.10;;
66830;SDS011;53739;44.224;22.528;2022-07-24T01:47:54;10.93;;;8.25;;
66830;SDS011;53739;44.224;22.528;2022-07-24T01:50:20;16.80;;;9.30;;
66830;SDS011;53739;44.224;22.528;2022-07-24T01:52:46;17.25;;;9.15;;
66830;SDS011;53739;44.224;22.528;2022-07-24T01:55:12;12.02;;;9.65;;
66830;SDS011;53739;44.224;22.528;2022-07-24T01:57:38;17.83;;;8.70;;
66830;SDS011;53739;44.224;22.528;2022-07-24T02:00:05;15.43;;;9.30;;
66830;SDS011;53739;44.224;22.528;2022-07-24T02:02:36;18.10;;;9.65;;
66830;SDS011;53739;44.224;22.528;2022-07-24T02:05:02;20.00;;;10.07;;
66830;SDS011;53739;44.224;22.528;2022-07-24T02:07:28;16.75;;;9.57;;
66830;SDS011;53739;44.224;22.528;2022-07-24T02:09:54;21.00;;;9.65;;
66830;SDS011;53739;44.224;22.528;2022-07-24T02:12:20;16.05;;;9.27;;
66830;SDS011;53739;44.224;22.528;2022-07-24T02:14:45;22.10;;;9.60;;
66830;SDS011;53739;44.224;22.528;2022-07-24T02:17:11;13.30;;;8.90;;
66830;SDS011;53739;44.224;22.528;2022-07-24T02:19:37;18.63;;;9.50;;
66830;SDS011;53739;44.224;22.528;2022-07-24T02:22:03;14.48;;;9.82;;
66830;SDS011;53739;44.224;22.528;2022-07-24T02:24:29;14.82;;;9.82;;
66830;SDS011;53739;44.224;22.528;2022-07-24T02:26:55;15.27;;;9.27;;
66830;SDS011;53739;44.224;22.528;2022-07-24T02:29:21;20.15;;;8.95;;
66830;SDS011;53739;44.224;22.528;2022-07-24T02:31:46;13.02;;;9.52;;
66830;SDS011;53739;44.224;22.528;2022-07-24T02:34:12;14.70;;;9.80;;
66830;SDS011;53739;44.224;22.528;2022-07-24T02:36:38;16.10;;;9.68;;
66830;SDS011;53739;44.224;22.528;2022-07-24T02:39:04;11.80;;;9.52;;
66830;SDS011;53739;44.224;22.528;2022-07-24T02:41:30;13.88;;;8.70;;
66830;SDS011;53739;44.224;22.528;2022-07-24T02:43:56;13.80;;;9.07;;
66830;SDS011;53739;44.224;22.528;2022-07-24T02:46:21;20.23;;;9.45;;
66830;SDS011;53739;44.224;22.528;2022-07-24T02:48:47;13.98;;;9.18;;
66830;SDS011;53739;44.224;22.528;2022-07-24T02:51:13;12.50;;;9.13;;
66830;SDS011;53739;44.224;22.528;2022-07-24T02:53:39;14.50;;;9.10;;
66830;SDS011;53739;44.224;22.528;2022-07-24T02:56:05;11.70;;;8.70;;
66830;SDS011;53739;44.224;22.528;2022-07-24T02:58:31;12.25;;;8.77;;
66830;SDS011;53739;44.224;22.528;2022-07-24T03:00:57;15.18;;;9.10;;
66830;SDS011;53739;44.224;22.528;2022-07-24T03:03:24;15.98;;;8.98;;
66830;SDS011;53739;44.224;22.528;2022-07-24T03:05:50;16.08;;;9.30;;
66830;SDS011;53739;44.224;22.528;2022-07-24T03:08:16;11.50;;;8.80;;
66830;SDS011;53739;44.224;22.528;2022-07-24T03:10:41;18.48;;;8.60;;
66830;SDS011;53739;44.224;22.528;2022-07-24T03:13:07;13.20;;;9.00;;
66830;SDS011;53739;44.224;22.528;2022-07-24T03:15:33;13.18;;;9.10;;
66830;SDS011;53739;44.224;22.528;2022-07-24T03:17:59;15.90;;;8.70;;
66830;SDS011;53739;44.224;22.528;2022-07-24T03:20:26;13.82;;;9.02;;
66830;SDS011;53739;44.224;22.528;2022-07-24T03:22:54;13.73;;;9.15;;
66830;SDS011;53739;44.224;22.528;2022-07-24T03:25:20;12.23;;;9.18;;
66830;SDS011;53739;44.224;22.528;2022-07-24T03:27:46;10.55;;;9.45;;
66830;SDS011;53739;44.224;22.528;2022-07-24T03:30:13;12.82;;;9.30;;
66830;SDS011;53739;44.224;22.528;2022-07-24T03:32:39;10.65;;;9.15;;
66830;SDS011;53739;44.224;22.528;2022-07-24T03:35:06;13.88;;;8.88;;
66830;SDS011;53739;44.224;22.528;2022-07-24T03:37:32;16.48;;;10.40;;
66830;SDS011;53739;44.224;22.528;2022-07-24T03:39:58;13.25;;;10.48;;
66830;SDS011;53739;44.224;22.528;2022-07-24T03:42:24;13.55;;;10.50;;
66830;SDS011;53739;44.224;22.528;2022-07-24T03:44:50;13.43;;;10.27;;
66830;SDS011;53739;44.224;22.528;2022-07-24T03:47:15;14.18;;;10.60;;
66830;SDS011;53739;44.224;22.528;2022-07-24T03:49:41;17.30;;;10.90;;
66830;SDS011;53739;44.224;22.528;2022-07-24T03:52:08;14.95;;;10.00;;
66830;SDS011;53739;44.224;22.528;2022-07-24T03:54:34;15.73;;;10.40;;
66830;SDS011;53739;44.224;22.528;2022-07-24T03:57:00;18.38;;;10.13;;
66830;SDS011;53739;44.224;22.528;2022-07-24T03:59:26;17.65;;;10.00;;
66830;SDS011;53739;44.224;22.528;2022-07-24T04:01:52;10.98;;;9.77;;
66830;SDS011;53739;44.224;22.528;2022-07-24T04:04:18;19.45;;;10.43;;
66830;SDS011;53739;44.224;22.528;2022-07-24T04:06:43;14.38;;;9.93;;
66830;SDS011;53739;44.224;22.528;2022-07-24T04:09:09;16.23;;;9.52;;
66830;SDS011;53739;44.224;22.528;2022-07-24T04:11:35;18.40;;;9.82;;
66830;SDS011;53739;44.224;22.528;2022-07-24T04:14:01;13.27;;;9.68;;
66830;SDS011;53739;44.224;22.528;2022-07-24T04:16:27;17.55;;;10.75;;
66830;SDS011;53739;44.224;22.528;2022-07-24T04:18:53;16.85;;;10.85;;
66830;SDS011;53739;44.224;22.528;2022-07-24T04:21:19;18.15;;;10.82;;
66830;SDS011;53739;44.224;22.528;2022-07-24T04:23:45;14.95;;;10.02;;
66830;SDS011;53739;44.224;22.528;2022-07-24T04:26:10;15.27;;;10.73;;
66830;SDS011;53739;44.224;22.528;2022-07-24T04:28:36;17.08;;;10.32;;
66830;SDS011;53739;44.224;22.528;2022-07-24T04:31:02;16.10;;;10.32;;
66830;SDS011;53739;44.224;22.528;2022-07-24T04:33:28;17.33;;;9.90;;
66830;SDS011;53739;44.224;22.528;2022-07-24T04:35:54;17.75;;;9.93;;
66830;SDS011;53739;44.224;22.528;2022-07-24T04:38:20;14.20;;;9.57;;
66830;SDS011;53739;44.224;22.528;2022-07-24T04:40:46;11.07;;;9.82;;
66830;SDS011;53739;44.224;22.528;2022-07-24T04:43:12;19.35;;;9.90;;
66830;SDS011;53739;44.224;22.528;2022-07-24T04:45:37;15.30;;;9.68;;
66830;SDS011;53739;44.224;22.528;2022-07-24T04:48:04;13.10;;;9.32;;
66830;SDS011;53739;44.224;22.528;2022-07-24T04:50:30;11.82;;;9.35;;
66830;SDS011;53739;44.224;22.528;2022-07-24T04:52:56;12.13;;;9.13;;
66830;SDS011;53739;44.224;22.528;2022-07-24T04:55:22;13.43;;;9.52;;
66830;SDS011;53739;44.224;22.528;2022-07-24T04:57:47;13.48;;;9.93;;
66830;SDS011;53739;44.224;22.528;2022-07-24T05:00:16;16.45;;;10.48;;
66830;SDS011;53739;44.224;22.528;2022-07-24T05:02:42;11.25;;;9.75;;
66830;SDS011;53739;44.224;22.528;2022-07-24T05:05:08;14.63;;;9.52;;
66830;SDS011;53739;44.224;22.528;2022-07-24T05:07:34;15.93;;;10.07;;
66830;SDS011;53739;44.224;22.528;2022-07-24T05:10:00;12.75;;;8.85;;
66830;SDS011;53739;44.224;22.528;2022-07-24T05:12:25;15.85;;;9.85;;
66830;SDS011;53739;44.224;22.528;2022-07-24T05:14:52;15.23;;;9.02;;
66830;SDS011;53739;44.224;22.528;2022-07-24T05:17:18;12.73;;;8.68;;
66830;SDS011;53739;44.224;22.528;2022-07-24T05:19:44;11.57;;;9.02;;
66830;SDS011;53739;44.224;22.528;2022-07-24T05:22:10;11.43;;;8.55;;
66830;SDS011;53739;44.224;22.528;2022-07-24T05:24:35;12.10;;;9.10;;
66830;SDS011;53739;44.224;22.528;2022-07-24T05:27:01;15.18;;;9.55;;
66830;SDS011;53739;44.224;22.528;2022-07-24T05:29:27;14.32;;;7.90;;
66830;SDS011;53739;44.224;22.528;2022-07-24T05:31:53;13.07;;;8.82;;
66830;SDS011;53739;44.224;22.528;2022-07-24T05:34:20;14.98;;;8.32;;
66830;SDS011;53739;44.224;22.528;2022-07-24T05:40:16;17.55;;;8.75;;
66830;SDS011;53739;44.224;22.528;2022-07-24T05:42:45;14.23;;;9.23;;
66830;SDS011;53739;44.224;22.528;2022-07-24T05:45:14;18.23;;;9.38;;
66830;SDS011;53739;44.224;22.528;2022-07-24T05:47:40;14.98;;;9.30;;
66830;SDS011;53739;44.224;22.528;2022-07-24T05:50:07;18.50;;;10.07;;
66830;SDS011;53739;44.224;22.528;2022-07-24T05:52:35;19.52;;;10.48;;
66830;SDS011;53739;44.224;22.528;2022-07-24T05:55:01;21.67;;;10.57;;
66830;SDS011;53739;44.224;22.528;2022-07-24T05:57:27;14.45;;;9.45;;
66830;SDS011;53739;44.224;22.528;2022-07-24T05:59:53;17.90;;;9.23;;
66830;SDS011;53739;44.224;22.528;2022-07-24T06:02:19;15.00;;;9.35;;
66830;SDS011;53739;44.224;22.528;2022-07-24T06:04:45;12.57;;;9.15;;
66830;SDS011;53739;44.224;22.528;2022-07-24T06:07:11;16.13;;;8.82;;
66830;SDS011;53739;44.224;22.528;2022-07-24T06:09:37;9.20;;;7.70;;
66830;SDS011;53739;44.224;22.528;2022-07-24T06:12:04;18.83;;;9.13;;
66830;SDS011;53739;44.224;22.528;2022-07-24T06:14:30;16.27;;;8.95;;
66830;SDS011;53739;44.224;22.528;2022-07-24T06:16:57;13.15;;;8.82;;
66830;SDS011;53739;44.224;22.528;2022-07-24T06:19:23;19.10;;;8.55;;
66830;SDS011;53739;44.224;22.528;2022-07-24T06:21:49;18.27;;;9.13;;
66830;SDS011;53739;44.224;22.528;2022-07-24T06:24:15;15.85;;;8.65;;
66830;SDS011;53739;44.224;22.528;2022-07-24T06:26:41;15.55;;;8.98;;
66830;SDS011;53739;44.224;22.528;2022-07-24T06:29:07;17.77;;;8.25;;
66830;SDS011;53739;44.224;22.528;2022-07-24T06:31:33;11.75;;;8.15;;
66830;SDS011;53739;44.224;22.528;2022-07-24T06:33:59;13.73;;;7.75;;
66830;SDS011;53739;44.224;22.528;2022-07-24T09:00:20;8.85;;;7.93;;
66830;SDS011;53739;44.224;22.528;2022-07-24T09:28:18;11.77;;;8.35;;
66830;SDS011;53739;44.224;22.528;2022-07-24T09:42:09;12.90;;;8.90;;
66830;SDS011;53739;44.224;22.528;2022-07-24T10:12:56;18.30;;;10.40;;
66830;SDS011;53739;44.224;22.528;2022-07-24T10:15:27;20.92;;;10.70;;
66830;SDS011;53739;44.224;22.528;2022-07-24T10:21:53;15.18;;;10.02;;
66830;SDS011;53739;44.224;22.528;2022-07-24T10:27:48;16.58;;;10.02;;
66830;SDS011;53739;44.224;22.528;2022-07-24T10:30:48;13.30;;;9.50;;
66830;SDS011;53739;44.224;22.528;2022-07-24T10:36:50;16.80;;;10.15;;
66830;SDS011;53739;44.224;22.528;2022-07-24T10:52:28;16.40;;;9.85;;
66830;SDS011;53739;44.224;22.528;2022-07-24T11:01:31;14.60;;;8.63;;
66830;SDS011;53739;44.224;22.528;2022-07-24T11:22:05;15.27;;;10.25;;
66830;SDS011;53739;44.224;22.528;2022-07-24T11:31:54;21.63;;;9.65;;
66830;SDS011;53739;44.224;22.528;2022-07-24T11:48:18;19.08;;;8.73;;
66830;SDS011;53739;44.224;22.528;2022-07-24T11:54:58;13.48;;;8.20;;
66830;SDS011;53739;44.224;22.528;2022-07-24T12:51:13;8.30;;;6.95;;
66830;SDS011;53739;44.224;22.528;2022-07-24T12:54:06;12.68;;;7.13;;
66830;SDS011;53739;44.224;22.528;2022-07-24T13:17:19;11.23;;;7.40;;
66830;SDS011;53739;44.224;22.528;2022-07-24T13:27:24;9.20;;;7.00;;
66830;SDS011;53739;44.224;22.528;2022-07-24T13:29:56;10.32;;;6.72;;
66830;SDS011;53739;44.224;22.528;2022-07-24T13:36:45;13.20;;;6.80;;
66830;SDS011;53739;44.224;22.528;2022-07-24T13:39:18;7.25;;;6.30;;
66830;SDS011;53739;44.224;22.528;2022-07-24T13:44:56;11.73;;;6.57;;
66830;SDS011;53739;44.224;22.528;2022-07-24T13:57:35;10.82;;;6.60;;
66830;SDS011;53739;44.224;22.528;2022-07-24T14:00:57;13.57;;;6.68;;
66830;SDS011;53739;44.224;22.528;2022-07-24T14:11:00;10.80;;;6.30;;
66830;SDS011;53739;44.224;22.528;2022-07-24T14:23:58;10.50;;;8.32;;
66830;SDS011;53739;44.224;22.528;2022-07-24T14:29:50;11.48;;;7.03;;
66830;SDS011;53739;44.224;22.528;2022-07-24T14:42:14;16.00;;;7.85;;
66830;SDS011;53739;44.224;22.528;2022-07-24T14:51:27;10.77;;;8.70;;
66830;SDS011;53739;44.224;22.528;2022-07-24T14:54:08;9.02;;;8.13;;
66830;SDS011;53739;44.224;22.528;2022-07-24T15:37:58;19.50;;;7.40;;
66830;SDS011;53739;44.224;22.528;2022-07-24T15:40:33;14.60;;;8.07;;
66830;SDS011;53739;44.224;22.528;2022-07-24T15:50:00;8.32;;;7.18;;
66830;SDS011;53739;44.224;22.528;2022-07-24T15:53:10;8.32;;;7.38;;
66830;SDS011;53739;44.224;22.528;2022-07-24T15:55:42;11.25;;;7.63;;
66830;SDS011;53739;44.224;22.528;2022-07-24T15:58:29;13.55;;;7.18;;
66830;SDS011;53739;44.224;22.528;2022-07-24T16:03:49;13.40;;;7.37;;
66830;SDS011;53739;44.224;22.528;2022-07-24T16:06:20;10.52;;;7.80;;
66830;SDS011;53739;44.224;22.528;2022-07-24T16:12:44;9.45;;;7.05;;
66830;SDS011;53739;44.224;22.528;2022-07-24T16:15:25;8.20;;;6.63;;
66830;SDS011;53739;44.224;22.528;2022-07-24T16:21:07;10.13;;;6.72;;
66830;SDS011;53739;44.224;22.528;2022-07-24T16:27:00;12.13;;;7.35;;
66830;SDS011;53739;44.224;22.528;2022-07-24T16:29:31;7.68;;;6.78;;
66830;SDS011;53739;44.224;22.528;2022-07-24T16:32:43;11.38;;;6.85;;
66830;SDS011;53739;44.224;22.528;2022-07-24T16:39:25;9.73;;;6.80;;
66830;SDS011;53739;44.224;22.528;2022-07-24T16:41:57;10.25;;;7.13;;
66830;SDS011;53739;44.224;22.528;2022-07-24T16:44:22;10.20;;;6.50;;
66830;SDS011;53739;44.224;22.528;2022-07-24T16:46:50;10.05;;;7.68;;
66830;SDS011;53739;44.224;22.528;2022-07-24T16:49:22;11.63;;;6.60;;
66830;SDS011;53739;44.224;22.528;2022-07-24T16:55:46;10.48;;;6.65;;
66830;SDS011;53739;44.224;22.528;2022-07-24T17:05:15;12.23;;;7.78;;
66830;SDS011;53739;44.224;22.528;2022-07-24T17:07:44;8.27;;;6.88;;
66830;SDS011;53739;44.224;22.528;2022-07-24T17:14:12;9.13;;;6.65;;
66830;SDS011;53739;44.224;22.528;2022-07-24T17:16:41;9.40;;;6.20;;
66830;SDS011;53739;44.224;22.528;2022-07-24T17:19:12;15.93;;;5.88;;
66830;SDS011;53739;44.224;22.528;2022-07-24T17:21:41;7.57;;;6.32;;
66830;SDS011;53739;44.224;22.528;2022-07-24T17:24:09;7.93;;;6.13;;
66830;SDS011;53739;44.224;22.528;2022-07-24T17:26:43;12.43;;;6.03;;
66830;SDS011;53739;44.224;22.528;2022-07-24T17:29:09;13.52;;;7.18;;
66830;SDS011;53739;44.224;22.528;2022-07-24T17:31:35;12.73;;;6.47;;
66830;SDS011;53739;44.224;22.528;2022-07-24T17:34:19;10.75;;;6.38;;
66830;SDS011;53739;44.224;22.528;2022-07-24T17:36:45;7.93;;;6.50;;
66830;SDS011;53739;44.224;22.528;2022-07-24T17:39:41;9.38;;;6.20;;
66830;SDS011;53739;44.224;22.528;2022-07-24T17:49:43;13.18;;;6.50;;
66830;SDS011;53739;44.224;22.528;2022-07-24T18:06:25;9.45;;;7.15;;
66830;SDS011;53739;44.224;22.528;2022-07-24T18:12:58;11.57;;;7.47;;
66830;SDS011;53739;44.224;22.528;2022-07-24T18:19:14;8.07;;;7.15;;
66830;SDS011;53739;44.224;22.528;2022-07-24T18:21:49;12.90;;;7.45;;
66830;SDS011;53739;44.224;22.528;2022-07-24T18:24:29;9.77;;;7.28;;
66830;SDS011;53739;44.224;22.528;2022-07-24T18:40:58;9.05;;;7.18;;
66830;SDS011;53739;44.224;22.528;2022-07-24T18:43:27;12.25;;;7.50;;
66830;SDS011;53739;44.224;22.528;2022-07-24T18:45:58;9.48;;;7.57;;
66830;SDS011;53739;44.224;22.528;2022-07-24T18:48:27;11.00;;;7.32;;
66830;SDS011;53739;44.224;22.528;2022-07-24T18:50:58;8.93;;;7.68;;
66830;SDS011;53739;44.224;22.528;2022-07-24T18:53:36;11.48;;;7.57;;
66830;SDS011;53739;44.224;22.528;2022-07-24T18:56:07;10.27;;;7.35;;
66830;SDS011;53739;44.224;22.528;2022-07-24T19:01:55;9.18;;;7.47;;
66830;SDS011;53739;44.224;22.528;2022-07-24T19:04:22;8.55;;;7.70;;
66830;SDS011;53739;44.224;22.528;2022-07-24T19:06:50;8.43;;;7.40;;
66830;SDS011;53739;44.224;22.528;2022-07-24T19:09:21;11.65;;;7.03;;
66830;SDS011;53739;44.224;22.528;2022-07-24T19:12:19;8.63;;;7.18;;
66830;SDS011;53739;44.224;22.528;2022-07-24T19:14:56;11.95;;;7.13;;
66830;SDS011;53739;44.224;22.528;2022-07-24T19:17:22;10.63;;;7.55;;
66830;SDS011;53739;44.224;22.528;2022-07-24T19:19:52;12.55;;;7.90;;
66830;SDS011;53739;44.224;22.528;2022-07-24T19:22:21;9.23;;;7.53;;
66830;SDS011;53739;44.224;22.528;2022-07-24T19:25:04;11.38;;;7.82;;
66830;SDS011;53739;44.224;22.528;2022-07-24T19:30:53;9.63;;;7.35;;
66830;SDS011;53739;44.224;22.528;2022-07-24T19:33:53;10.48;;;8.18;;
66830;SDS011;53739;44.224;22.528;2022-07-24T19:36:27;10.00;;;8.32;;
66830;SDS011;53739;44.224;22.528;2022-07-24T19:39:19;13.95;;;7.78;;
66830;SDS011;53739;44.224;22.528;2022-07-24T19:41:48;8.90;;;7.28;;
66830;SDS011;53739;44.224;22.528;2022-07-24T19:44:14;11.15;;;7.10;;
66830;SDS011;53739;44.224;22.528;2022-07-24T19:47:00;11.63;;;7.28;;
66830;SDS011;53739;44.224;22.528;2022-07-24T19:49:31;8.07;;;6.85;;
66830;SDS011;53739;44.224;22.528;2022-07-24T19:51:59;7.35;;;6.45;;
66830;SDS011;53739;44.224;22.528;2022-07-24T19:54:25;10.23;;;6.63;;
66830;SDS011;53739;44.224;22.528;2022-07-24T19:56:51;7.95;;;7.00;;
66830;SDS011;53739;44.224;22.528;2022-07-24T19:59:19;8.00;;;6.25;;
66830;SDS011;53739;44.224;22.528;2022-07-24T20:01:55;7.65;;;5.93;;
66830;SDS011;53739;44.224;22.528;2022-07-24T20:04:24;7.78;;;6.32;;
66830;SDS011;53739;44.224;22.528;2022-07-24T20:10:42;14.05;;;6.93;;
66830;SDS011;53739;44.224;22.528;2022-07-24T20:13:13;8.75;;;6.72;;
66830;SDS011;53739;44.224;22.528;2022-07-24T20:15:55;9.40;;;6.50;;
66830;SDS011;53739;44.224;22.528;2022-07-24T20:18:21;11.02;;;6.78;;
66830;SDS011;53739;44.224;22.528;2022-07-24T20:20:47;8.90;;;6.38;;
66830;SDS011;53739;44.224;22.528;2022-07-24T20:23:22;7.18;;;6.47;;
66830;SDS011;53739;44.224;22.528;2022-07-24T20:29:27;11.63;;;6.78;;
66830;SDS011;53739;44.224;22.528;2022-07-24T20:31:53;9.23;;;6.32;;
66830;SDS011;53739;44.224;22.528;2022-07-24T20:34:39;9.43;;;6.40;;
66830;SDS011;53739;44.224;22.528;2022-07-24T20:37:05;11.38;;;6.80;;
66830;SDS011;53739;44.224;22.528;2022-07-24T20:39:31;9.07;;;6.43;;
66830;SDS011;53739;44.224;22.528;2022-07-24T20:42:02;8.05;;;6.50;;
66830;SDS011;53739;44.224;22.528;2022-07-24T20:44:34;9.48;;;6.18;;
66830;SDS011;53739;44.224;22.528;2022-07-24T20:47:00;11.38;;;6.68;;
66830;SDS011;53739;44.224;22.528;2022-07-24T20:49:28;9.55;;;6.78;;
66830;SDS011;53739;44.224;22.528;2022-07-24T20:54:45;7.72;;;6.90;;
66830;SDS011;53739;44.224;22.528;2022-07-24T20:57:16;17.05;;;7.53;;
66830;SDS011;53739;44.224;22.528;2022-07-24T21:06:32;11.18;;;6.95;;
66830;SDS011;53739;44.224;22.528;2022-07-24T21:09:08;9.07;;;6.85;;
66830;SDS011;53739;44.224;22.528;2022-07-24T21:11:44;10.45;;;7.03;;
66830;SDS011;53739;44.224;22.528;2022-07-24T21:14:56;12.25;;;6.80;;
66830;SDS011;53739;44.224;22.528;2022-07-24T21:17:22;9.75;;;7.32;;
66830;SDS011;53739;44.224;22.528;2022-07-24T21:19:48;10.95;;;7.13;;
66830;SDS011;53739;44.224;22.528;2022-07-24T21:22:14;12.13;;;6.75;;
66830;SDS011;53739;44.224;22.528;2022-07-24T21:24:48;13.95;;;7.30;;
66830;SDS011;53739;44.224;22.528;2022-07-24T21:27:30;12.23;;;7.22;;
66830;SDS011;53739;44.224;22.528;2022-07-24T21:29:57;12.35;;;7.10;;
66830;SDS011;53739;44.224;22.528;2022-07-24T21:33:01;16.20;;;7.75;;
66830;SDS011;53739;44.224;22.528;2022-07-24T21:42:51;14.23;;;7.15;;
66830;SDS011;53739;44.224;22.528;2022-07-24T21:45:17;12.70;;;6.80;;
66830;SDS011;53739;44.224;22.528;2022-07-24T21:47:43;13.75;;;7.22;;
66830;SDS011;53739;44.224;22.528;2022-07-24T21:50:09;12.70;;;7.30;;
66830;SDS011;53739;44.224;22.528;2022-07-24T21:52:44;14.50;;;7.43;;
66830;SDS011;53739;44.224;22.528;2022-07-24T21:55:10;9.82;;;7.88;;
66830;SDS011;53739;44.224;22.528;2022-07-24T21:57:36;10.77;;;7.60;;
66830;SDS011;53739;44.224;22.528;2022-07-24T22:00:03;12.50;;;7.53;;
66830;SDS011;53739;44.224;22.528;2022-07-24T22:02:32;10.73;;;8.07;;
66830;SDS011;53739;44.224;22.528;2022-07-24T22:05:11;9.85;;;7.30;;
66830;SDS011;53739;44.224;22.528;2022-07-24T22:07:43;15.13;;;8.55;;
66830;SDS011;53739;44.224;22.528;2022-07-24T22:10:26;12.13;;;7.35;;
66830;SDS011;53739;44.224;22.528;2022-07-24T22:13:12;17.85;;;7.43;;
66830;SDS011;53739;44.224;22.528;2022-07-24T22:16:07;14.68;;;7.97;;
66830;SDS011;53739;44.224;22.528;2022-07-24T22:18:44;10.60;;;7.37;;
66830;SDS011;53739;44.224;22.528;2022-07-24T22:25:09;11.30;;;8.35;;
66830;SDS011;53739;44.224;22.528;2022-07-24T22:41:09;9.32;;;8.32;;
66830;SDS011;53739;44.224;22.528;2022-07-24T22:46:42;13.95;;;8.90;;
66830;SDS011;53739;44.224;22.528;2022-07-24T22:53:09;11.15;;;9.10;;
66830;SDS011;53739;44.224;22.528;2022-07-24T22:55:38;14.90;;;8.95;;
66830;SDS011;53739;44.224;22.528;2022-07-24T22:58:19;14.85;;;9.20;;
66830;SDS011;53739;44.224;22.528;2022-07-24T23:04:26;14.55;;;9.63;;
66830;SDS011;53739;44.224;22.528;2022-07-24T23:07:10;10.23;;;8.60;;
66830;SDS011;53739;44.224;22.528;2022-07-24T23:09:45;12.43;;;8.98;;
66830;SDS011;53739;44.224;22.528;2022-07-24T23:12:20;12.73;;;8.95;;
66830;SDS011;53739;44.224;22.528;2022-07-24T23:14:54;12.60;;;9.15;;
66830;SDS011;53739;44.224;22.528;2022-07-24T23:20:55;10.65;;;9.35;;
66830;SDS011;53739;44.224;22.528;2022-07-24T23:27:26;13.10;;;9.88;;
66830;SDS011;53739;44.224;22.528;2022-07-24T23:29:57;12.15;;;9.57;;
66830;SDS011;53739;44.224;22.528;2022-07-24T23:32:43;14.93;;;9.10;;
66830;SDS011;53739;44.224;22.528;2022-07-24T23:38:32;12.35;;;9.52;;
66830;SDS011;53739;44.224;22.528;2022-07-24T23:41:03;14.75;;;9.85;;
66830;SDS011;53739;44.224;22.528;2022-07-24T23:43:32;13.45;;;9.48;;
66830;SDS011;53739;44.224;22.528;2022-07-24T23:46:00;12.50;;;9.45;;
66830;SDS011;53739;44.224;22.528;2022-07-24T23:51:09;12.68;;;9.68;;
66830;SDS011;53739;44.224;22.528;2022-07-24T23:53:46;11.43;;;9.63;;
66830;SDS011;53739;44.224;22.528;2022-07-24T23:56:21;10.82;;;9.40;;
66830;SDS011;53739;44.224;22.528;2022-07-24T23:58:47;11.93;;;9.10;;
